Weather observations for the past three days for
Camp Springs / Andrews Air Force Base
| Date | Time (edt) | Wind (mph) | Vis. (mi.) | Weather | Sky Cond. | Temperature (ºF) | Relative Humidity | Wind Chill (°F) | Heat Index (°F) | Pressure | Precipitation (in) | ||||||
|---|---|---|---|---|---|---|---|---|---|---|---|---|---|---|---|---|---|
| Air | Dwpt | 6 hour | altimeter (in) | sea level (mb) | 1 hr | 3 hr | 6 hr | ||||||||||
| Max. | Min. | ||||||||||||||||
| 01 | 05:55 | W 5 | 10.00 | Partly Cloudy | SCT140 | 75.7 | 72.1 | 89% | 76 | 30 | 1016.3 | ||||||
| 01 | 04:55 | SW 6 | 10.00 | Mostly Cloudy | SCT070 BKN140 | 75.6 | 72.3 | 90% | 75 | 30.01 | 1016.6 | ||||||
| 01 | 03:55 | SW 6 | 10.00 | Mostly Cloudy | BKN160 | 76.3 | 73 | 90% | 77 | 30 | 1016.3 | ||||||
| 01 | 02:55 | SW 6 | 10.00 | Mostly Cloudy | BKN160 | 75.9 | 72.1 | 88% | 76 | 30.02 | 1017.0 | ||||||
| 01 | 01:55 | SW 7 | 10.00 | Partly Cloudy | FEW110 SCT170 | 78.8 | 74.8 | 79.3 | 74.1 | 88% | 82 | 30.03 | 1017.3 | ||||
| 01 | 00:55 | SW 3 | 10.00 | Mostly Cloudy | SCT100 BKN160 | 74.7 | 71.8 | 91% | 30.04 | 1017.7 | |||||||
| 31 | 23:55 | S 3 | 10.00 | Partly Cloudy | SCT140 | 75.4 | 72.9 | 92% | 75 | 30.05 | 1018.0 | ||||||
| 31 | 22:55 | S 3 | 10.00 | Partly Cloudy | SCT150 | 77.5 | 73.6 | 88% | 79 | 30.05 | 1018.0 | ||||||
| 31 | 21:55 | SE 5 | 10.00 | Mostly Cloudy | BKN130 | 77 | 72.5 | 86% | 78 | 30.05 | 1018.0 | ||||||
| 31 | 20:55 | S 3 | 10.00 | Mostly Cloudy | BKN130 | 77.2 | 71.6 | 83% | 79 | 30.04 | 1017.7 | ||||||
| 31 | 18:55 | SE 7 | 10.00 | Mostly Cloudy | BKN140 | 81.3 | 73.8 | 78% | 87 | 30.04 | 1017.7 | ||||||
| 31 | 17:55 | SE 7 | 10.00 | Mostly Cloudy | BKN040 BKN150 | 82.9 | 74.1 | 75% | 90 | 30.05 | 1018.0 | ||||||
| 31 | 16:55 | Calm | 10.00 | Mostly Cloudy | BKN039 BKN150 | 85.5 | 70.9 | 62% | 91 | 30.04 | 1017.7 | ||||||
| 31 | 15:55 | E 5 | 10.00 | Mostly Cloudy | SCT031 BKN060 | 84.9 | 71.8 | 65% | 91 | 30.04 | 1017.7 | ||||||
| 31 | 14:55 | Calm | 10.00 | Mostly Cloudy | SCT031 BKN080 | 84.6 | 70.5 | 63% | 89 | 30.06 | 1018.4 | ||||||
| 31 | 13:55 | SE 3 | 10.00 | Mostly Cloudy | BKN060 | 86.2 | 72 | 87.3 | 74.5 | 63% | 92 | 30.06 | 1018.4 | ||||
| 31 | 12:55 | E 6 | 10.00 | Mostly Cloudy | FEW025 BKN044 | 84.7 | 72.9 | 68% | 91 | 30.08 | 1019.0 | ||||||
| 31 | 11:55 | SE 5 | 10.00 | Mostly Cloudy | SCT022 BKN030 | 84.9 | 72.7 | 67% | 91 | 30.08 | 1019.0 | ||||||
| 31 | 10:55 | E 8 | 10.00 | Mostly Cloudy | BKN019 | 82 | 71.6 | 71% | 87 | 30.08 | 1019.0 | ||||||
| 31 | 09:55 | E 6 | 10.00 | Mostly Cloudy | SCT012 BKN180 | 81.5 | 74.3 | 79% | 87 | 30.08 | 1019.0 | ||||||
| 31 | 08:55 | NE 5 | 10.00 | Mostly Cloudy | SCT080 BKN120 | 77.2 | 71.2 | 82% | 79 | 30.09 | 1019.4 | ||||||
| 31 | 07:55 | N 3 | 10.00 | Mostly Cloudy | SCT070 BKN180 | 74.3 | 71.1 | 74.3 | 68.5 | 90% | 30.08 | 1019.1 | |||||
| 31 | 06:55 | Calm | 10.00 | Mostly Cloudy | SCT050 BKN180 | 69.3 | 67.5 | 94% | 30.06 | 1018.4 | |||||||
| 31 | 05:55 | Calm | 10.00 | Mostly Cloudy | SCT140 BKN250 | 71.6 | 69.1 | 92% | 30.05 | 1018.0 | |||||||
| 31 | 04:55 | SE 5 | 10.00 | Mostly Cloudy | SCT140 BKN250 | 71.2 | 69.4 | 94% | 30.05 | 1018.0 | |||||||
| 31 | 03:55 | Calm | 10.00 | Mostly Cloudy | FEW140 BKN250 | 70.7 | 69.1 | 95% | 30.05 | 1018.0 | |||||||
| 31 | 02:55 | Calm | 10.00 | Mostly Cloudy | FEW150 BKN250 | 72.3 | 70.5 | 94% | 30.05 | 1018.0 | |||||||
| 31 | 01:55 | Calm | 10.00 | Mostly Cloudy | FEW180 BKN250 | 72.3 | 70.5 | 81.5 | 70.5 | 94% | 30.06 | 1018.4 | 0.01 | ||||
| 31 | 00:55 | Calm | 10.00 | Mostly Cloudy | FEW150 BKN250 | 72.7 | 70.9 | 94% | 30.06 | 1018.4 | |||||||
| 30 | 23:55 | Calm | 10.00 | Partly Cloudy | SCT150 SCT170 | 74.1 | 71.2 | 91% | 30.07 | 1018.7 | |||||||
| 30 | 22:55 | S 3 | 10.00 | Mostly Cloudy | FEW050 BKN140 | 74.3 | 71.4 | 91% | 30.07 | 1018.7 | 0.01 | ||||||
| 30 | 21:55 | Calm | 10.00 | Mostly Cloudy | SCT050 BKN100 | 74.3 | 71.4 | 91% | 30.08 | 1019.1 | 0.01 | ||||||
| 30 | 20:55 | W 9 | 6.00 | Light Rain | SCT042 SCT050 BKN080 BKN200 | 75.9 | 70.3 | 83% | 77 | 30.09 | 1019.4 | ||||||
| 30 | 19:55 | SW 5 | 10.00 | Thunderstorm in Vicinity | FEW095 SCT150 | 78.6 | 68.4 | 89.6 | 78.3 | 71% | 81 | 30.06 | 1018.4 | ||||
| 30 | 18:55 | SW 5 | 10.00 | Partly Cloudy | FEW045 SCT100 | 83.8 | 69.4 | 62% | 88 | 30.07 | 1018.7 | ||||||
| 30 | 17:55 | S 9 | 10.00 | Partly Cloudy | SCT100 | 86.2 | 69.6 | 58% | 91 | 30.05 | 1018.0 | ||||||
| 30 | 16:55 | SW 7 | 10.00 | A Few Clouds | FEW044 | 85.8 | 67.6 | 55% | 89 | 30.05 | 1018.0 | ||||||
| 30 | 15:55 | SW 9 | 10.00 | A Few Clouds | FEW050 FEW100 | 89.2 | 66.9 | 48% | 92 | 30.06 | 1018.4 | ||||||
| 30 | 14:55 | SW 9 | 10.00 | A Few Clouds | FEW050 FEW100 | 87.6 | 69.4 | 55% | 92 | 30.09 | 1019.4 | ||||||
| 30 | 13:55 | W 9 | 10.00 | A Few Clouds | FEW032 FEW190 | 84.4 | 68.4 | 86.9 | 72.3 | 59% | 88 | 30.12 | 1020.4 | ||||
| 30 | 12:55 | SW 9 | 10.00 | Mostly Cloudy | BKN028 | 84 | 70 | 63% | 88 | 30.14 | 1021.1 | ||||||
| 30 | 11:55 | SW 13 | 10.00 | Mostly Cloudy | FEW023 BKN030 | 82.2 | 68.4 | 63% | 85 | 30.16 | 1021.8 | ||||||
| 30 | 10:55 | S 14 G 22 | 10.00 | Mostly Cloudy | SCT022 BKN025 | 82.8 | 71.4 | 69% | 88 | 30.16 | 1021.8 | ||||||
| 30 | 09:55 | Vrbl 2 | 10.00 | Mostly Cloudy | BKN015 | 80.1 | 70.9 | 74% | 84 | 30.16 | 1021.8 | ||||||
| 30 | 08:55 | Vrbl 3 | 10.00 | Mostly Cloudy | BKN009 | 76.3 | 70.3 | 82% | 77 | 30.18 | 1022.5 | ||||||
| 30 | 07:55 | S 6 | 10.00 | Mostly Cloudy | BKN004 | 72.1 | 69.3 | 72.1 | 67.8 | 91% | 30.19 | 1022.8 | |||||
| 30 | 06:55 | SW 5 | 10.00 | Overcast | SCT010 BKN030 OVC050 | 71.1 | 68.5 | 92% | 30.19 | 1022.8 | |||||||
| 30 | 05:55 | Calm | 10.00 | Mostly Cloudy | SCT010 BKN030 | 69.3 | 66.7 | 92% | 30.19 | 1022.8 | |||||||
| 30 | 04:55 | S 6 | 10.00 | Mostly Cloudy | SCT030 BKN100 | 68.2 | 65.7 | 92% | 30.18 | 1022.5 | |||||||
| 30 | 03:55 | S 5 | 10.00 | A Few Clouds | FEW060 FEW100 | 68.7 | 64.6 | 87% | 30.18 | 1022.5 | |||||||
| 30 | 02:55 | S 5 | 10.00 | Mostly Cloudy | BKN095 | 69.3 | 63.5 | 82% | 30.19 | 1022.8 | |||||||
| 30 | 01:55 | Calm | 10.00 | Mostly Cloudy | SCT050 BKN085 | 70.2 | 61.9 | 74.1 | 65.3 | 75% | 30.2 | 1023.1 | |||||
| 30 | 00:55 | Calm | 10.00 | Mostly Cloudy | BKN085 | 69.1 | 61.2 | 76% | 30.2 | 1023.1 | |||||||
| 29 | 23:55 | S 5 | 10.00 | A Few Clouds | FEW080 FEW250 | 69.3 | 60.3 | 73% | 30.19 | 1022.8 | |||||||
| 29 | 22:55 | Calm | 10.00 | A Few Clouds | FEW080 FEW250 | 67.1 | 61.3 | 82% | 30.19 | 1022.8 | |||||||
| 29 | 21:55 | Calm | 10.00 | A Few Clouds | FEW250 | 68.2 | 60.6 | 77% | 30.19 | 1022.8 | |||||||
| 29 | 20:55 | NE 6 | 10.00 | A Few Clouds | FEW090 FEW250 | 68.4 | 60.4 | 76% | 30.16 | 1021.8 | |||||||
| 29 | 19:55 | SE 5 | 10.00 | A Few Clouds | FEW070 FEW250 | 73 | 60.6 | 82.9 | 73 | 65% | 30.16 | 1021.8 | |||||
| 29 | 18:55 | SE 6 | 10.00 | A Few Clouds | FEW065 FEW250 | 76.6 | 59.2 | 55% | 78 | 30.17 | 1022.2 | ||||||
| 29 | 17:55 | SE 8 | 10.00 | A Few Clouds | FEW250 | 80.6 | 60.8 | 51% | 81 | 30.16 | 1021.8 | ||||||
| 29 | 16:55 | SE 8 | 10.00 | A Few Clouds | FEW250 | 80.2 | 58.6 | 48% | 81 | 30.16 | 1021.8 | ||||||
| 29 | 15:55 | Vrbl 3 | 10.00 | Partly Cloudy | SCT250 | 81.1 | 57.2 | 44% | 81 | 30.19 | 1022.8 | ||||||
| 29 | 14:55 | Calm | 10.00 | Partly Cloudy | FEW070 SCT250 | 81.9 | 57.7 | 44% | 82 | 30.2 | 1023.1 | ||||||
| 29 | 13:55 | Calm | 10.00 | Partly Cloudy | SCT090 SCT250 | 80.6 | 55.4 | 82.6 | 69.1 | 42% | 81 | 30.22 | 1023.8 | ||||
| 29 | 12:55 | N 5 | 10.00 | Partly Cloudy | SCT090 SCT250 | 78.8 | 55 | 44% | 79 | 30.23 | 1024.2 | ||||||
| 29 | 11:55 | NE 8 | 10.00 | Fair | CLR | 79.7 | 57 | 46% | 80 | 30.24 | 1024.5 | ||||||
| 29 | 10:55 | N 8 | 10.00 | Fair | CLR | 77.2 | 57 | 50% | 79 | 30.22 | 1023.8 | ||||||
| 29 | 09:55 | NE 8 | 10.00 | Fair | CLR | 75 | 57.2 | 54% | 78 | 30.22 | 1023.8 | ||||||
| 29 | 08:55 | NE 8 | 10.00 | Fair | CLR | 71.2 | 57.6 | 62% | 30.21 | 1023.5 | |||||||
| 29 | 07:55 | N 10 | 10.00 | Fair | CLR | 68.9 | 57.9 | 72 | 66.2 | 68% | 30.2 | 1023.2 | |||||
| 29 | 06:55 | N 8 | 10.00 | Fair | CLR | 67.1 | 61 | 81% | 30.19 | 1022.8 | |||||||
| Date | Time (edt) | Wind (mph) | Vis. (mi.) | Weather | Sky Cond. | Air | Dwpt | Max. | Min. | Relative Humidity | Wind Chill (°F) | Heat Index (°F) | altimeter (in) | sea level (mb) | 1 hr | 3 hr | 6 hr |
| 6 hour | |||||||||||||||||
| Temperature (ºF) | Pressure | Precipitation (in) | |||||||||||||||